Time;durP1;ratioP1;P1;durP2;ratioP2;P2;SDS_P1;SDS_P2;PMS_P1;PMS_P2;Temp;Humidity;BMP_temperature;BMP_pressure;BME280_temperature;BME280_humidity;BME280_pressure;Samples;Min_cycle;Max_cycle;Signal;HPM_P1;HPM_P2
2022/03/18 00:03:43;;;;;;;12.52;6.10;;;;;;;-5.10;72.80;101836.63;10330975;28;20042;-78
2022/03/18 00:08:46;;;;;;;8.70;4.15;;;;;;;-5.15;73.36;101828.91;10331421;28;20038;-78
2022/03/18 00:13:47;;;;;;;10.10;5.72;;;;;;;-5.54;72.66;101771.84;10331546;28;20086;-78
2022/03/18 00:18:47;;;;;;;10.18;5.43;;;;;;;-5.03;72.88;101856.31;10339224;28;20102;-78
2022/03/18 00:23:48;;;;;;;11.45;7.05;;;;;;;-5.36;72.82;101795.69;10338469;28;20048;-78
2022/03/18 00:28:49;;;;;;;12.23;6.75;;;;;;;-4.91;72.57;101863.84;10338257;28;20039;-78
2022/03/18 00:33:50;;;;;;;13.60;6.38;;;;;;;-4.92;72.32;101866.47;10337394;28;20068;-78
2022/03/18 00:38:51;;;;;;;12.70;6.45;;;;;;;-5.40;72.86;101794.06;10337000;28;20061;-79
2022/03/18 00:43:53;;;;;;;11.05;5.88;;;;;;;-5.10;73.31;101876.34;10338186;28;20053;-78
2022/03/18 00:54:14;;;;;;;13.23;5.65;;;;;;;-5.98;74.27;101758.06;10328708;28;20133;-79
2022/03/18 00:59:15;;;;;;;9.27;5.38;;;;;;;-5.62;74.36;101816.94;10321279;28;20469;-80
2022/03/18 01:04:16;;;;;;;10.93;6.63;;;;;;;-5.43;74.45;101851.94;10296760;28;20043;-80
2022/03/18 01:09:17;;;;;;;11.23;5.13;;;;;;;-5.54;75.27;101862.47;10296772;28;20043;-79
2022/03/18 01:14:19;;;;;;;13.60;5.68;;;;;;;-5.67;75.28;101855.84;10296428;28;20533;-79
2022/03/18 01:19:20;;;;;;;13.10;6.95;;;;;;;-6.50;75.21;101715.00;10296491;28;20042;-80
2022/03/18 01:24:21;;;;;;;9.85;5.32;;;;;;;-5.36;75.35;101894.09;10295962;28;20061;-80
2022/03/18 01:29:22;;;;;;;11.93;6.13;;;;;;;-5.67;75.48;101863.59;10295220;28;20050;-79
2022/03/18 01:34:23;;;;;;;10.45;4.53;;;;;;;-6.47;75.73;101720.13;10295490;28;20090;-79
2022/03/18 01:39:24;;;;;;;10.52;5.75;;;;;;;-5.75;75.29;101852.50;10295484;28;20096;-80
2022/03/18 01:44:24;;;;;;;12.02;6.70;;;;;;;-5.22;74.94;101923.19;10294577;28;20050;-80
2022/03/18 01:49:25;;;;;;;11.70;6.70;;;;;;;-5.21;74.62;101934.41;10293502;28;20549;-80
2022/03/18 01:54:45;;;;;;;10.75;5.90;;;;;;;-5.23;74.91;101929.28;10294296;28;20525;-80
2022/03/18 01:59:46;;;;;;;9.88;5.05;;;;;;;-5.36;75.09;101928.63;10294081;28;20074;-79
2022/03/18 02:04:48;;;;;;;15.82;7.25;;;;;;;-5.26;75.32;101937.09;10294031;28;20038;-79
2022/03/18 02:09:49;;;;;;;12.65;5.72;;;;;;;-5.25;75.78;101946.56;10293679;28;20666;-80
2022/03/18 02:14:50;;;;;;;9.45;5.53;;;;;;;-5.63;75.65;101905.81;10293871;28;20031;-80
2022/03/18 02:19:51;;;;;;;8.27;4.93;;;;;;;-5.29;76.10;101963.06;10292690;28;21092;-80
2022/03/18 02:24:54;;;;;;;29.55;11.10;;;;;;;-5.40;75.59;101962.38;10293834;28;20042;-80
2022/03/18 02:29:55;;;;;;;23.23;11.37;;;;;;;-5.26;75.82;101955.25;10294062;28;20038;-79
2022/03/18 02:34:56;;;;;;;13.15;7.47;;;;;;;-5.37;75.48;101946.78;10293704;28;20042;-80
2022/03/18 02:39:58;;;;;;;12.05;6.88;;;;;;;-6.22;74.43;101860.25;10291376;28;20450;-79
2022/03/18 02:45:00;;;;;;;10.10;6.47;;;;;;;-5.72;74.71;101984.47;10318836;28;20054;-78
2022/03/18 02:50:01;;;;;;;11.93;6.65;;;;;;;-5.81;75.98;101963.91;10314946;28;20042;-78
2022/03/18 02:55:02;;;;;;;10.50;5.43;;;;;;;-5.43;75.35;101975.41;10322890;28;20046;-78
2022/03/18 03:00:05;;;;;;;12.55;7.00;;;;;;;-5.65;75.42;101938.63;10320277;28;20054;-77
2022/03/18 03:10:28;;;;;;;10.27;5.70;;;;;;;-5.39;75.07;101990.84;10307874;28;20600;-77
2022/03/18 03:15:29;;;;;;;9.53;5.33;;;;;;;-5.39;75.66;101996.03;10320684;28;20081;-79
2022/03/18 03:20:31;;;;;;;9.27;4.88;;;;;;;-5.59;75.75;101941.16;10319173;28;20050;-77
2022/03/18 03:25:32;;;;;;;12.27;5.60;;;;;;;-5.31;75.60;101970.00;10331138;28;20165;-78
2022/03/18 03:30:33;;;;;;;11.27;5.32;;;;;;;-4.91;75.12;102001.22;10331701;28;20537;-78
2022/03/18 03:35:34;;;;;;;7.15;3.97;;;;;;;-5.13;75.70;101990.41;10323607;28;20120;-79
2022/03/18 03:40:36;;;;;;;14.82;6.53;;;;;;;-4.78;75.21;101998.41;10331958;28;20058;-79
2022/03/18 03:45:37;;;;;;;14.65;5.50;;;;;;;-4.57;74.68;101986.78;10331815;28;20046;-80
2022/03/18 03:50:42;;;;;;;8.27;4.50;;;;;;;-5.01;74.59;101927.13;10334184;28;20509;-84
2022/03/18 03:55:42;;;;;;;;;;;;;;;-4.48;74.89;102012.53;10339804;28;20049;-80
2022/03/18 04:00:43;;;;;;;11.18;6.22;;;;;;;-4.65;75.08;102007.66;10339282;28;19913;-81
2022/03/18 04:05:44;;;;;;;10.90;5.70;;;;;;;-4.52;75.42;101996.13;10339683;28;20045;-82
2022/03/18 04:10:45;;;;;;;10.00;5.63;;;;;;;-4.75;75.06;101910.22;10339129;28;20074;-80
2022/03/18 04:15:48;;;;;;;9.85;5.82;;;;;;;-4.03;74.49;101970.91;10339147;28;20074;-82
2022/03/18 04:20:48;;;;;;;10.45;6.07;;;;;;;-3.58;74.10;102014.88;10338833;28;20376;-80
2022/03/18 04:25:51;;;;;;;10.98;6.18;;;;;;;-3.32;74.12;102048.88;10337684;28;20121;-81
2022/03/18 04:30:51;;;;;;;11.88;6.20;;;;;;;-3.23;74.13;102048.66;10338534;28;20046;-78
2022/03/18 04:35:52;;;;;;;10.45;6.25;;;;;;;-3.86;74.68;101958.38;10336905;28;20051;-75
2022/03/18 04:40:53;;;;;;;11.82;6.78;;;;;;;-3.39;74.15;101997.09;10335972;28;20189;-80
2022/03/18 04:45:54;;;;;;;9.85;4.25;;;;;;;-3.00;73.53;102037.66;10331166;28;20145;-81
2022/03/18 04:50:55;;;;;;;14.48;6.50;;;;;;;-2.89;73.96;102070.34;10338174;28;20132;-79
2022/03/18 04:55:56;;;;;;;13.65;5.80;;;;;;;-3.93;73.33;101877.19;10336720;28;20049;-78
2022/03/18 05:00:58;;;;;;;12.43;5.93;;;;;;;-3.12;73.47;102003.31;10336224;28;20049;-78
2022/03/18 05:05:58;;;;;;;13.70;6.22;;;;;;;-2.49;73.48;102064.91;10336466;28;20525;-78
2022/03/18 05:10:59;;;;;;;9.68;5.30;;;;;;;-2.97;73.12;101963.06;10337041;28;20181;-78
2022/03/18 05:16:00;;;;;;;10.25;4.28;;;;;;;-2.51;70.96;101986.06;10335883;28;20054;-79
2022/03/18 05:21:01;;;;;;;9.68;4.93;;;;;;;-2.19;70.55;102010.28;10335874;28;20053;-79
2022/03/18 05:26:02;;;;;;;5.70;3.50;;;;;;;-1.58;68.02;102120.47;10336014;28;20560;-79
2022/03/18 05:31:03;;;;;;;9.73;5.45;;;;;;;-1.70;66.68;102086.97;10336881;28;20470;-79
2022/03/18 05:36:04;;;;;;;17.83;5.43;;;;;;;-1.44;66.08;102105.25;10335838;28;20534;-79
2022/03/18 05:41:05;;;;;;;10.48;4.68;;;;;;;-1.29;65.64;102105.66;10334959;28;20054;-79
2022/03/18 05:46:07;;;;;;;6.93;4.30;;;;;;;-1.22;64.41;102101.97;10335468;28;20564;-79
2022/03/18 05:51:08;;;;;;;9.30;4.65;;;;;;;-1.17;64.52;102107.88;10334634;28;20050;-79
2022/03/18 06:01:28;;;;;;;7.18;3.50;;;;;;;-0.95;62.84;102121.09;10334512;28;20096;-80
2022/03/18 06:06:29;;;;;;;8.48;4.93;;;;;;;-1.64;63.25;101946.06;10334660;28;20038;-80
2022/03/18 06:11:48;;;;;;;8.18;5.15;;;;;;;-1.24;62.43;102004.69;10333777;28;20141;-80
2022/03/18 06:16:58;;;;;;;10.38;3.83;;;;;;;-0.58;60.38;102102.44;10333666;28;20410;-79
2022/03/18 06:22:00;;;;;;;8.95;4.13;;;;;;;-0.10;60.81;102129.47;10334460;28;20505;-80
2022/03/18 06:27:01;;;;;;;5.75;3.20;;;;;;;-1.12;58.03;101953.88;10333325;28;20076;-78
2022/03/18 06:32:02;;;;;;;5.85;2.72;;;;;;;-0.77;56.65;101991.78;10333551;28;20045;-79
2022/03/18 06:37:03;;;;;;;3.00;1.38;;;;;;;-0.60;55.17;101950.25;10333922;28;20042;-79
2022/03/18 06:42:04;;;;;;;13.10;5.88;;;;;;;0.05;57.26;102066.19;10332570;28;20058;-80
2022/03/18 06:47:05;;;;;;;4.65;2.97;;;;;;;-0.25;55.60;101899.28;10333088;28;20414;-80
2022/03/18 06:52:06;;;;;;;8.00;3.53;;;;;;;-0.28;54.62;101883.72;10333749;28;20061;-81
2022/03/18 06:57:07;;;;;;;6.47;3.50;;;;;;;1.19;52.03;102117.44;10332204;28;20080;-80
2022/03/18 07:02:08;;;;;;;5.65;2.60;;;;;;;0.90;52.69;102074.19;10330732;28;20041;-80
2022/03/18 07:07:09;;;;;;;8.57;3.47;;;;;;;1.08;53.30;102096.97;10332410;28;20043;-80
2022/03/18 07:12:09;;;;;;;7.35;4.32;;;;;;;0.41;52.39;101966.34;10332093;28;20192;-79
2022/03/18 07:22:30;;;;;;;6.72;3.67;;;;;;;0.66;51.57;102061.19;10332317;28;20046;-80
2022/03/18 07:27:30;;;;;;;6.35;3.35;;;;;;;0.97;50.85;102129.72;10331646;28;20042;-80
2022/03/18 07:32:31;;;;;;;9.68;5.15;;;;;;;1.05;51.38;102130.28;10331122;28;20039;-82
2022/03/18 07:37:32;;;;;;;10.15;3.97;;;;;;;1.07;50.17;102083.94;10331637;28;20501;-80
2022/03/18 07:42:43;;;;;;;15.55;6.97;;;;;;;1.67;49.74;102129.38;10332459;28;20054;-80
2022/03/18 07:47:45;;;;;;;12.35;6.05;;;;;;;2.28;47.39;102124.00;10331762;28;20486;-80
2022/03/18 07:52:48;;;;;;;12.23;6.05;;;;;;;2.23;47.82;102094.53;10331392;28;20046;-80
2022/03/18 07:57:49;;;;;;;12.43;5.35;;;;;;;1.82;48.39;102109.50;10331441;28;20072;-80
2022/03/18 08:02:52;;;;;;;8.57;5.07;;;;;;;2.12;48.67;102101.19;10331369;28;20509;-80
2022/03/18 08:07:53;;;;;;;5.30;2.75;;;;;;;2.33;47.09;102078.34;10330599;28;20042;-79
2022/03/18 08:12:54;;;;;;;8.77;3.55;;;;;;;2.14;46.42;102083.63;10332332;28;20061;-80
2022/03/18 08:17:55;;;;;;;6.18;3.47;;;;;;;0.15;46.10;101821.03;10330929;28;20039;-79
2022/03/18 08:22:56;;;;;;;7.80;2.53;;;;;;;2.22;45.53;102112.97;10330770;28;20043;-79
2022/03/18 08:27:57;;;;;;;4.97;2.45;;;;;;;1.77;45.00;102049.47;10331206;28;20490;-78
2022/03/18 08:32:59;;;;;;;8.95;3.70;;;;;;;1.92;45.66;102047.06;10330479;28;20034;-81
2022/03/18 08:38:00;;;;;;;4.97;1.83;;;;;;;1.21;45.61;101953.31;10335761;28;20097;-78
2022/03/18 08:43:04;;;;;;;6.35;4.45;;;;;;;0.96;46.51;101923.91;10337293;28;20072;-79
2022/03/18 08:48:07;;;;;;;7.53;4.40;;;;;;;2.20;46.08;102093.81;10337649;28;20042;-79
2022/03/18 08:53:10;;;;;;;12.65;3.08;;;;;;;1.11;45.39;101933.72;10338435;28;20034;-77
2022/03/18 08:58:11;;;;;;;5.37;2.80;;;;;;;1.71;45.86;102049.75;10338169;28;20513;-78
2022/03/18 09:03:12;;;;;;;14.40;6.30;;;;;;;2.49;46.14;102121.31;10336443;28;20046;-79
2022/03/18 09:08:14;;;;;;;7.28;3.85;;;;;;;2.44;44.09;102081.31;10336703;28;20046;-78
2022/03/18 09:13:15;;;;;;;11.30;5.30;;;;;;;2.46;44.63;102056.72;10336191;28;20391;-79
2022/03/18 09:18:16;;;;;;;10.02;4.20;;;;;;;2.25;43.84;102014.03;10336215;28;20038;-78
2022/03/18 09:23:17;;;;;;;8.35;4.78;;;;;;;1.81;44.22;101951.44;10336864;28;20495;-79
2022/03/18 09:28:18;;;;;;;6.35;2.80;;;;;;;1.82;43.58;101941.81;10336028;28;20070;-79
2022/03/18 09:33:19;;;;;;;7.97;4.55;;;;;;;2.51;44.93;102098.47;10335290;28;20050;-79
2022/03/18 09:38:20;;;;;;;9.40;4.85;;;;;;;3.53;42.90;102096.91;10335782;28;20066;-80
2022/03/18 09:43:21;;;;;;;9.18;2.78;;;;;;;4.00;42.11;102102.28;10335435;28;20039;-77
2022/03/18 09:48:24;;;;;;;8.18;4.78;;;;;;;2.68;42.28;101987.47;10335766;28;20057;-79
2022/03/18 09:53:25;;;;;;;8.25;4.65;;;;;;;2.97;43.03;102098.88;10335042;28;20094;-78
2022/03/18 09:58:27;;;;;;;10.70;6.50;;;;;;;2.18;43.14;102012.59;10335053;28;20034;-79
2022/03/18 10:03:37;;;;;;;4.93;2.30;;;;;;;3.24;42.81;102087.91;10334442;28;20526;-79
2022/03/18 10:08:44;;;;;;;8.23;3.65;;;;;;;3.43;43.35;102094.75;10334344;28;20066;-79
2022/03/18 10:13:51;;;;;;;8.20;5.00;;;;;;;2.90;43.24;102095.72;10333779;28;20133;-79
2022/03/18 10:18:52;;;;;;;10.02;4.63;;;;;;;2.02;43.70;101985.41;10334117;28;20038;-79
2022/03/18 10:24:07;;;;;;;12.15;4.85;;;;;;;2.36;44.44;102005.63;10333257;28;20047;-78
2022/03/18 10:29:13;;;;;;;14.15;4.68;;;;;;;2.89;43.72;102095.78;10334122;28;20049;-78
2022/03/18 10:39:40;;;;;;;5.45;2.65;;;;;;;3.20;42.20;102024.16;10333757;28;20085;-79
2022/03/18 10:44:53;;;;;;;9.05;4.65;;;;;;;3.77;42.61;102072.00;10333516;28;20042;-80
2022/03/18 10:50:19;;;;;;;7.20;3.97;;;;;;;3.91;42.21;102046.72;10333218;28;20129;-79
2022/03/18 10:55:25;;;;;;;8.50;4.57;;;;;;;3.77;41.12;102006.28;10332813;28;20108;-78
2022/03/18 11:00:32;;;;;;;6.82;3.90;;;;;;;4.15;41.27;102087.47;10333162;28;20108;-79
2022/03/18 11:05:36;;;;;;;10.50;4.03;;;;;;;3.71;45.43;102103.00;10331702;28;20173;-79
2022/03/18 11:16:18;;;;;;;12.00;6.63;;;;;;;3.12;48.48;102105.16;10332018;28;20453;-79
2022/03/18 11:21:21;;;;;;;21.70;9.25;;;;;;;1.83;48.23;101927.78;10332492;28;20038;-80
2022/03/18 11:26:23;;;;;;;19.25;7.50;;;;;;;2.63;49.35;102076.91;10331224;28;20042;-78
2022/03/18 11:31:24;;;;;;;9.93;4.20;;;;;;;2.28;48.23;102062.84;10331126;28;20053;-78
2022/03/18 11:36:24;;;;;;;11.88;5.72;;;;;;;2.14;49.64;102099.34;10330544;28;20041;-78
2022/03/18 11:41:27;;;;;;;13.50;6.40;;;;;;;1.62;49.47;101986.44;10332746;28;20553;-79
2022/03/18 11:46:28;;;;;;;9.98;6.47;;;;;;;1.92;47.73;101950.09;10331011;28;20137;-80
2022/03/18 11:51:32;;;;;;;9.38;4.43;;;;;;;2.87;47.05;102095.00;10330076;28;20038;-78
2022/03/18 11:56:45;;;;;;;13.48;6.00;;;;;;;2.60;48.08;102087.53;10331439;28;20061;-78
2022/03/18 12:01:59;;;;;;;12.32;6.47;;;;;;;2.74;48.27;102037.00;10331336;28;20038;-80
2022/03/18 12:07:19;;;;;;;9.95;6.43;;;;;;;3.07;48.60;102102.72;10330718;28;20125;-80
2022/03/18 12:12:26;;;;;;;7.05;4.15;;;;;;;2.81;49.53;102108.41;10334549;28;20046;-82
2022/03/18 12:17:26;;;;;;;13.45;6.40;;;;;;;2.11;50.81;102068.88;10356395;28;20508;-80
2022/03/18 12:22:29;;;;;;;11.13;7.72;;;;;;;1.98;51.56;102104.44;10344668;28;20089;-81
2022/03/18 12:27:36;;;;;;;9.57;6.25;;;;;;;2.27;51.54;102124.06;10368980;28;20033;-81
2022/03/18 12:32:47;;;;;;;15.77;7.97;;;;;;;1.85;53.98;102098.03;10375351;28;20044;-81
2022/03/18 12:37:48;;;;;;;10.05;6.47;;;;;;;1.90;54.26;102144.09;10364198;28;20084;-84
2022/03/18 12:42:54;;;;;;;8.60;4.97;;;;;;;0.91;53.54;101973.84;10337338;28;20038;-83
2022/03/18 12:48:19;;;;;;;8.63;4.88;;;;;;;1.26;53.52;102008.13;10352532;28;20048;-80
2022/03/18 12:53:25;;;;;;;10.70;5.60;;;;;;;1.28;52.57;102020.19;10357083;28;20045;-79
2022/03/18 12:58:34;;;;;;;16.63;7.75;;;;;;;1.08;52.96;102015.84;10352306;28;20490;-82
2022/03/18 13:03:37;;;;;;;10.73;6.55;;;;;;;1.53;52.02;102089.84;10335009;28;20046;-78
2022/03/18 13:08:38;;;;;;;12.60;6.45;;;;;;;1.45;50.95;102094.56;10354082;28;20053;-81
2022/03/18 13:13:51;;;;;;;19.98;7.95;;;;;;;1.16;52.16;102033.81;10358322;28;20057;-80
2022/03/18 13:18:54;;;;;;;10.43;5.35;;;;;;;1.59;51.87;102107.91;10353294;28;20064;-81
2022/03/18 13:23:55;;;;;;;26.25;5.90;;;;;;;1.97;50.76;102178.75;10376550;28;20127;-81
2022/03/18 13:28:56;;;;;;;10.00;6.38;;;;;;;1.48;52.10;102138.94;10376156;28;20513;-80
2022/03/18 13:33:57;;;;;;;10.73;4.82;;;;;;;1.36;53.10;102166.50;10376139;28;20033;-83
2022/03/18 13:39:07;;;;;;;7.40;4.70;;;;;;;0.85;53.68;102100.53;10375718;28;20058;-81
2022/03/18 13:44:08;;;;;;;14.05;7.00;;;;;;;1.09;54.48;102173.72;10376233;28;20490;-81
2022/03/18 13:49:14;;;;;;;7.80;4.63;;;;;;;-0.02;55.39;101995.03;10365746;28;20046;-81
2022/03/18 13:54:21;;;;;;;10.55;6.38;;;;;;;0.85;55.57;102123.22;10324431;28;20077;-83
2022/03/18 13:59:21;;;;;;;13.93;7.45;;;;;;;0.42;54.58;102042.13;10334881;28;20446;-80
2022/03/18 14:04:22;;;;;;;11.93;5.03;;;;;;;0.95;53.55;102108.00;10333960;28;20092;-80
2022/03/18 14:09:23;;;;;;;10.73;6.32;;;;;;;1.36;53.92;102206.63;10333639;28;20438;-80
2022/03/18 14:14:28;;;;;;;17.48;7.35;;;;;;;1.45;53.88;102204.56;10334978;28;20438;-79
2022/03/18 14:20:00;;;;;;;12.68;6.68;;;;;;;1.49;53.54;102214.81;10332878;28;20042;-83
2022/03/18 14:25:12;;;;;;;9.63;5.70;;;;;;;0.95;52.97;102171.66;10334239;28;20092;-80
2022/03/18 14:30:17;;;;;;;9.93;4.78;;;;;;;0.11;53.65;102041.59;10342500;28;20153;-79
2022/03/18 14:35:18;;;;;;;10.57;6.35;;;;;;;0.34;53.54;102091.22;10332615;28;20074;-79
2022/03/18 14:40:21;;;;;;;21.55;7.40;;;;;;;0.99;53.69;102212.50;10351458;28;20552;-79
2022/03/18 14:45:22;;;;;;;8.70;4.50;;;;;;;0.84;53.32;102202.66;10369863;28;20073;-79
2022/03/18 14:50:23;;;;;;;9.98;4.70;;;;;;;0.20;54.40;102128.34;10361008;28;20085;-78
2022/03/18 15:00:43;;;;;;;12.07;5.43;;;;;;;-0.35;54.36;102072.06;10366059;28;20502;-79
2022/03/18 15:05:44;;;;;;;14.10;7.00;;;;;;;-0.27;54.16;102114.41;10361058;28;20096;-82
2022/03/18 15:10:46;;;;;;;17.83;8.93;;;;;;;-0.51;54.66;102101.31;10357059;28;20038;-80
2022/03/18 15:15:47;;;;;;;11.77;7.88;;;;;;;0.28;55.18;102234.38;10354487;28;20044;-78
2022/03/18 15:20:53;;;;;;;12.35;6.43;;;;;;;0.01;55.20;102212.69;10350190;28;21229;-79
2022/03/18 15:25:55;;;;;;;14.20;7.13;;;;;;;-0.33;55.40;102161.63;10337095;28;20030;-78
2022/03/18 15:30:56;;;;;;;12.48;7.60;;;;;;;-0.15;55.69;102228.91;10361753;28;20096;-80
2022/03/18 15:35:58;;;;;;;16.38;9.75;;;;;;;-0.34;56.03;102199.09;10372520;28;20124;-79
2022/03/18 15:40:59;;;;;;;14.93;8.30;;;;;;;0.03;56.46;102279.69;10371911;28;20053;-80
2022/03/18 15:46:01;;;;;;;14.65;7.90;;;;;;;-0.48;57.25;102208.25;10375742;28;20072;-80
2022/03/18 15:51:05;;;;;;;14.38;6.88;;;;;;;-0.12;57.39;102294.13;10380617;28;20045;-80
2022/03/18 15:56:06;;;;;;;18.52;7.20;;;;;;;-0.19;57.96;102294.34;10379119;28;20077;-79
2022/03/18 16:01:07;;;;;;;11.38;6.22;;;;;;;-1.50;57.66;102097.59;10364870;28;20057;-79
2022/03/18 16:06:09;;;;;;;21.70;8.13;;;;;;;-0.89;57.54;102214.81;10354943;28;20387;-79
2022/03/18 16:11:10;;;;;;;14.75;7.35;;;;;;;-0.77;57.89;102253.56;10360215;28;20536;-80
2022/03/18 16:16:18;;;;;;;13.07;6.40;;;;;;;-0.59;58.09;102290.44;10378436;28;20041;-79
2022/03/18 16:21:20;;;;;;;22.15;8.50;;;;;;;-0.52;58.25;102326.72;10380035;28;20132;-79
2022/03/18 16:26:22;;;;;;;13.23;7.53;;;;;;;-0.57;58.83;102323.44;10358536;28;20050;-79
2022/03/18 16:31:23;;;;;;;16.63;7.57;;;;;;;-0.52;58.50;102331.09;10369176;28;20041;-79
2022/03/18 16:36:23;;;;;;;18.02;9.27;;;;;;;-1.77;58.59;102125.34;10379377;28;20059;-79
2022/03/18 16:41:25;;;;;;;12.82;6.35;;;;;;;-1.79;59.35;102136.75;10379193;28;20399;-79
2022/03/18 16:51:45;;;;;;;22.70;10.88;;;;;;;-0.90;59.56;102312.22;10378039;28;20137;-79
2022/03/18 16:56:47;;;;;;;16.00;7.35;;;;;;;-0.73;59.66;102348.28;10377240;28;20133;-80
2022/03/18 17:01:51;;;;;;;11.88;7.13;;;;;;;-1.23;59.34;102277.56;10369310;28;20414;-81
2022/03/18 17:06:54;;;;;;;22.25;11.02;;;;;;;-1.18;59.65;102300.00;10377105;28;20060;-79
2022/03/18 17:11:56;;;;;;;11.23;4.15;;;;;;;-1.61;59.61;102232.63;10377622;28;20042;-80
2022/03/18 17:16:57;;;;;;;10.20;5.57;;;;;;;-0.98;60.00;102375.09;10376550;28;20037;-79
2022/03/18 17:21:58;;;;;;;7.43;3.17;;;;;;;-1.76;60.02;102264.31;10376847;28;20033;-79
2022/03/18 17:27:00;;;;;;;7.10;4.25;;;;;;;-2.47;60.08;102171.59;10376978;28;20544;-79
2022/03/18 17:32:01;;;;;;;9.98;4.75;;;;;;;-1.68;60.72;102338.75;10376405;28;20124;-80
2022/03/18 17:37:02;;;;;;;7.82;3.83;;;;;;;-3.26;61.24;102098.09;10375969;28;20049;-81
2022/03/18 17:42:04;;;;;;;8.55;4.38;;;;;;;-2.26;61.96;102277.75;10350084;28;20148;-80
2022/03/18 17:47:08;;;;;;;10.48;5.07;;;;;;;-2.62;61.69;102243.06;10365889;28;20052;-80
2022/03/18 17:52:08;;;;;;;10.03;4.70;;;;;;;-3.58;62.29;102093.66;10361669;28;20038;-80
2022/03/18 17:57:19;;;;;;;12.07;5.22;;;;;;;-2.90;62.60;102215.13;10358340;28;20485;-80
2022/03/18 18:02:21;;;;;;;13.55;5.07;;;;;;;-2.97;63.21;102217.88;10375008;28;20046;-79
2022/03/18 18:07:22;;;;;;;5.63;3.28;;;;;;;-2.14;63.35;102354.72;10374004;28;20041;-78
2022/03/18 18:12:23;;;;;;;9.25;4.63;;;;;;;-2.36;63.57;102342.22;10374716;28;20041;-80
2022/03/18 18:17:24;;;;;;;8.60;4.35;;;;;;;-2.43;63.68;102345.81;10374860;28;20038;-79
2022/03/18 18:22:27;;;;;;;9.07;4.82;;;;;;;-2.12;63.56;102407.63;10374421;28;20456;-80
2022/03/18 18:27:28;;;;;;;8.20;3.83;;;;;;;-2.60;65.01;102308.94;10373722;28;20057;-79
2022/03/18 18:32:29;;;;;;;4.63;2.75;;;;;;;-2.62;65.35;102324.59;10374126;28;20042;-79
2022/03/18 18:37:29;;;;;;;9.00;4.20;;;;;;;-3.08;65.99;102244.13;10373606;28;20049;-79
2022/03/18 18:42:31;;;;;;;14.45;5.15;;;;;;;-3.40;66.86;102211.91;10374367;28;20135;-79
2022/03/18 18:47:32;;;;;;;11.15;5.10;;;;;;;-2.47;66.96;102382.38;10373205;28;20092;-80
2022/03/18 18:52:33;;;;;;;7.15;3.80;;;;;;;-2.38;66.99;102400.38;10373166;28;20088;-79
2022/03/18 18:57:34;;;;;;;8.32;4.97;;;;;;;-2.67;67.43;102349.84;10371828;28;20037;-79
2022/03/18 19:02:36;;;;;;;11.18;4.78;;;;;;;-3.13;67.73;102272.84;10367651;28;20037;-79
2022/03/18 19:07:38;;;;;;;8.25;4.47;;;;;;;-3.32;68.51;102259.38;10366125;28;20452;-79
2022/03/18 19:12:39;;;;;;;8.77;5.20;;;;;;;-2.66;69.07;102376.72;10343800;28;20453;-79
2022/03/18 19:17:40;;;;;;;3.35;1.85;;;;;;;-3.96;69.75;102167.16;10332784;28;20056;-79
2022/03/18 19:22:41;;;;;;;22.27;9.00;;;;;;;-3.01;69.07;102323.72;10357084;28;20053;-79
2022/03/18 19:27:43;;;;;;;14.75;7.25;;;;;;;-2.89;70.82;102361.59;10332508;28;20046;-79
2022/03/18 19:32:45;;;;;;;13.93;4.72;;;;;;;-3.76;71.05;102222.16;10331473;28;20517;-79
2022/03/18 19:37:48;;;;;;;10.02;4.97;;;;;;;-2.98;71.77;102347.06;10331405;28;20046;-79
2022/03/18 19:42:50;;;;;;;21.35;5.70;;;;;;;-2.80;72.79;102383.06;10331425;28;20081;-79
2022/03/18 19:47:51;;;;;;;9.60;5.03;;;;;;;-3.26;73.65;102315.53;10369280;28;20042;-79
2022/03/18 19:52:52;;;;;;;5.85;3.33;;;;;;;-2.93;74.66;102345.22;10370433;28;20140;-79
2022/03/18 20:03:12;;;;;;;6.55;3.25;;;;;;;-3.02;76.30;102353.19;10371279;28;20053;-79
2022/03/18 20:08:13;;;;;;;7.75;4.35;;;;;;;-3.09;76.40;102344.66;10371779;28;20045;-79
2022/03/18 20:13:16;;;;;;;9.05;3.65;;;;;;;-3.02;76.83;102356.66;10370421;28;20100;-79
2022/03/18 20:18:17;;;;;;;7.30;3.08;;;;;;;-3.79;77.34;102226.56;10371780;28;20049;-79
2022/03/18 20:23:17;;;;;;;9.15;5.13;;;;;;;-3.10;77.95;102352.50;10371419;28;20038;-79
2022/03/18 20:28:18;;;;;;;12.18;5.45;;;;;;;-3.14;78.42;102343.03;10371081;28;20449;-79
2022/03/18 20:33:19;;;;;;;13.50;6.43;;;;;;;-3.22;79.17;102348.41;10374607;28;20045;-80
2022/03/18 20:38:20;;;;;;;21.17;10.45;;;;;;;-3.17;79.10;102351.78;10379073;28;20064;-79
2022/03/18 20:43:22;;;;;;;38.67;13.30;;;;;;;-3.15;78.98;102362.13;10379429;28;20152;-78
2022/03/18 20:48:24;;;;;;;19.83;9.35;;;;;;;-3.54;79.26;102276.28;10378276;28;20046;-78
2022/03/18 20:53:25;;;;;;;20.48;8.80;;;;;;;-4.82;79.24;102065.00;10378436;28;20075;-78
2022/03/18 20:58:26;;;;;;;15.75;7.18;;;;;;;-4.16;79.08;102149.38;10378254;28;20042;-79
2022/03/18 21:03:27;;;;;;;12.10;6.38;;;;;;;-3.85;79.54;102206.75;10376863;28;20044;-79
2022/03/18 21:08:28;;;;;;;21.27;9.95;;;;;;;-3.15;79.74;102318.78;10377504;28;20042;-79
2022/03/18 21:13:29;;;;;;;11.18;5.78;;;;;;;-4.61;79.22;102049.06;10376733;28;20041;-79
2022/03/18 21:18:30;;;;;;;9.25;4.32;;;;;;;-4.06;79.40;102137.09;10376638;28;20042;-78
2022/03/18 21:23:31;;;;;;;16.73;7.43;;;;;;;-3.96;79.25;102165.41;10377381;28;20052;-78
2022/03/18 21:33:51;;;;;;;12.45;5.68;;;;;;;-4.08;78.92;102146.63;10376495;28;20030;-78
2022/03/18 21:38:53;;;;;;;14.95;8.45;;;;;;;-3.53;79.04;102239.00;10375863;28;20045;-79
2022/03/18 21:43:54;;;;;;;19.70;7.85;;;;;;;-2.99;79.22;102345.34;10376360;28;20124;-79
2022/03/18 21:48:57;;;;;;;11.95;6.32;;;;;;;-2.97;79.50;102322.75;10375683;28;20045;-78
2022/03/18 21:54:03;;;;;;;13.77;8.55;;;;;;;-3.09;79.53;102307.41;10375489;28;20064;-78
2022/03/18 21:59:04;;;;;;;14.02;8.00;;;;;;;-3.42;78.69;102257.84;10376060;28;20045;-78
2022/03/18 22:04:06;;;;;;;9.23;5.38;;;;;;;-3.29;79.16;102284.41;10375646;28;20096;-78
2022/03/18 22:09:07;;;;;;;10.65;7.18;;;;;;;-3.75;79.15;102215.22;10375274;28;20409;-78
2022/03/18 22:14:07;;;;;;;14.30;6.90;;;;;;;-3.05;79.08;102329.84;10375005;28;20034;-79
2022/03/18 22:19:10;;;;;;;13.80;7.40;;;;;;;-3.55;79.03;102251.19;10373906;28;20137;-78
2022/03/18 22:24:11;;;;;;;9.05;3.92;;;;;;;-4.39;78.68;102101.38;10374725;28;20042;-78
2022/03/18 22:29:12;;;;;;;13.82;8.07;;;;;;;-3.20;78.64;102292.06;10373756;28;20550;-78
2022/03/18 22:34:13;;;;;;;10.32;5.63;;;;;;;-3.25;78.78;102280.88;10368598;28;20077;-79
2022/03/18 22:39:14;;;;;;;6.50;3.25;;;;;;;-4.07;78.80;102143.16;10355814;28;20073;-78
2022/03/18 22:44:14;;;;;;;11.70;6.75;;;;;;;-3.24;78.81;102287.78;10334152;28;20054;-78
2022/03/18 22:49:15;;;;;;;15.48;8.20;;;;;;;-3.93;78.57;102172.28;10353099;28;20498;-78
2022/03/18 22:54:16;;;;;;;13.10;7.15;;;;;;;-4.13;78.61;102116.44;10372714;28;20045;-78
2022/03/18 22:59:17;;;;;;;7.78;4.53;;;;;;;-3.00;78.61;102309.81;10373940;28;20502;-78
2022/03/18 23:04:18;;;;;;;11.32;7.15;;;;;;;-3.97;78.56;102142.94;10372028;28;20140;-77
2022/03/18 23:09:19;;;;;;;11.48;6.38;;;;;;;-2.99;78.82;102298.53;10373705;28;20042;-78
2022/03/18 23:14:20;;;;;;;13.82;7.90;;;;;;;-3.11;78.68;102257.19;10372023;28;20069;-77
2022/03/18 23:19:21;;;;;;;12.27;7.88;;;;;;;-4.09;78.00;102091.28;10373179;28;20080;-78
2022/03/18 23:24:22;;;;;;;16.33;9.18;;;;;;;-2.87;78.38;102281.78;10373327;28;20038;-77
2022/03/18 23:29:23;;;;;;;14.00;8.63;;;;;;;-2.83;78.59;102286.06;10371934;28;20128;-77
2022/03/18 23:34:23;;;;;;;8.18;4.15;;;;;;;-3.73;78.20;102127.75;10373170;28;20049;-78
2022/03/18 23:39:24;;;;;;;17.23;8.80;;;;;;;-3.07;78.56;102249.31;10372474;28;20049;-78
2022/03/18 23:44:26;;;;;;;12.00;6.40;;;;;;;-3.48;78.89;102169.63;10373066;28;20054;-78
2022/03/18 23:49:27;;;;;;;33.05;17.00;;;;;;;-3.14;78.96;102236.47;10371006;28;20049;-77
2022/03/18 23:54:28;;;;;;;10.77;6.13;;;;;;;-2.80;78.97;102267.78;10372191;28;20060;-77
2022/03/18 23:59:29;;;;;;;18.95;5.95;;;;;;;-4.03;78.23;102056.56;10370295;28;20058;-78
